sensor_id;sensor_type;location;lat;lon;timestamp;pressure;altitude;pressure_sealevel;temperature;humidity
6433;BME280;3249;42.690;23.260;2024-01-10T00:01:58;95183.53;;;-6.26;100.00
6433;BME280;3249;42.690;23.260;2024-01-10T00:04:29;95184.16;;;-6.22;100.00
6433;BME280;3249;42.690;23.260;2024-01-10T00:07:01;95161.84;;;-6.39;100.00
6433;BME280;3249;42.690;23.260;2024-01-10T00:09:31;95179.94;;;-6.22;100.00
6433;BME280;3249;42.690;23.260;2024-01-10T00:12:00;95188.78;;;-6.16;100.00
6433;BME280;3249;42.690;23.260;2024-01-10T00:14:29;95180.47;;;-6.17;100.00
6433;BME280;3249;42.690;23.260;2024-01-10T00:16:58;95186.38;;;-5.91;100.00
6433;BME280;3249;42.690;23.260;2024-01-10T00:19:28;95192.72;;;-5.73;100.00
6433;BME280;3249;42.690;23.260;2024-01-10T00:22:01;95192.53;;;-5.70;100.00
6433;BME280;3249;42.690;23.260;2024-01-10T00:24:30;95189.50;;;-5.75;100.00
6433;BME280;3249;42.690;23.260;2024-01-10T00:26:59;95186.28;;;-5.77;100.00
6433;BME280;3249;42.690;23.260;2024-01-10T00:29:28;95196.06;;;-5.60;100.00
6433;BME280;3249;42.690;23.260;2024-01-10T00:32:02;95197.00;;;-5.36;100.00
6433;BME280;3249;42.690;23.260;2024-01-10T00:34:31;95206.81;;;-5.21;100.00
6433;BME280;3249;42.690;23.260;2024-01-10T00:37:03;95197.63;;;-5.08;100.00
6433;BME280;3249;42.690;23.260;2024-01-10T00:39:32;95199.81;;;-4.91;100.00
6433;BME280;3249;42.690;23.260;2024-01-10T00:42:02;95211.03;;;-4.71;100.00
6433;BME280;3249;42.690;23.260;2024-01-10T00:44:32;95208.81;;;-4.63;100.00
6433;BME280;3249;42.690;23.260;2024-01-10T00:47:03;95212.34;;;-4.53;100.00
6433;BME280;3249;42.690;23.260;2024-01-10T00:49:32;95210.22;;;-4.46;100.00
6433;BME280;3249;42.690;23.260;2024-01-10T00:52:04;95211.47;;;-4.64;100.00
6433;BME280;3249;42.690;23.260;2024-01-10T00:54:35;95192.16;;;-4.64;99.70
6433;BME280;3249;42.690;23.260;2024-01-10T00:57:04;95217.06;;;-4.48;100.00
6433;BME280;3249;42.690;23.260;2024-01-10T00:59:33;95210.94;;;-4.69;100.00
6433;BME280;3249;42.690;23.260;2024-01-10T01:02:03;95217.47;;;-4.54;99.63
6433;BME280;3249;42.690;23.260;2024-01-10T01:04:33;95204.41;;;-4.72;100.00
6433;BME280;3249;42.690;23.260;2024-01-10T01:07:07;95127.06;;;-5.16;100.00
6433;BME280;3249;42.690;23.260;2024-01-10T01:09:37;95202.88;;;-4.49;99.41
6433;BME280;3249;42.690;23.260;2024-01-10T01:12:06;95199.25;;;-4.45;98.37
6433;BME280;3249;42.690;23.260;2024-01-10T01:14:35;95200.44;;;-4.38;100.00
6433;BME280;3249;42.690;23.260;2024-01-10T01:17:05;95209.63;;;-4.50;99.80
6433;BME280;3249;42.690;23.260;2024-01-10T01:19:35;95203.84;;;-4.27;99.29
6433;BME280;3249;42.690;23.260;2024-01-10T01:22:07;95204.31;;;-4.22;97.93
6433;BME280;3249;42.690;23.260;2024-01-10T01:24:36;95206.94;;;-4.23;96.99
6433;BME280;3249;42.690;23.260;2024-01-10T01:27:05;95202.75;;;-4.35;95.77
6433;BME280;3249;42.690;23.260;2024-01-10T01:29:35;95199.78;;;-3.93;93.71
6433;BME280;3249;42.690;23.260;2024-01-10T01:32:04;95204.25;;;-3.97;91.45
6433;BME280;3249;42.690;23.260;2024-01-10T01:34:35;95196.22;;;-4.02;92.41
6433;BME280;3249;42.690;23.260;2024-01-10T01:37:07;95190.28;;;-4.01;91.23
6433;BME280;3249;42.690;23.260;2024-01-10T01:39:37;95193.22;;;-3.83;90.13
6433;BME280;3249;42.690;23.260;2024-01-10T01:42:06;95148.56;;;-4.03;89.68
6433;BME280;3249;42.690;23.260;2024-01-10T01:44:35;95195.03;;;-3.85;91.29
6433;BME280;3249;42.690;23.260;2024-01-10T01:47:05;95195.00;;;-4.32;93.92
6433;BME280;3249;42.690;23.260;2024-01-10T01:49:34;95194.94;;;-4.56;99.00
6433;BME280;3249;42.690;23.260;2024-01-10T01:52:07;95187.16;;;-4.89;100.00
6433;BME280;3249;42.690;23.260;2024-01-10T01:54:37;95191.19;;;-4.99;100.00
6433;BME280;3249;42.690;23.260;2024-01-10T01:57:06;95183.94;;;-4.91;100.00
6433;BME280;3249;42.690;23.260;2024-01-10T01:59:35;95175.69;;;-4.68;100.00
6433;BME280;3249;42.690;23.260;2024-01-10T02:02:05;95181.34;;;-4.77;100.00
6433;BME280;3249;42.690;23.260;2024-01-10T02:04:36;95153.03;;;-5.17;100.00
6433;BME280;3249;42.690;23.260;2024-01-10T02:07:08;95172.81;;;-5.00;100.00
6433;BME280;3249;42.690;23.260;2024-01-10T02:09:38;95154.28;;;-5.22;100.00
6433;BME280;3249;42.690;23.260;2024-01-10T02:12:08;95158.16;;;-4.93;100.00
6433;BME280;3249;42.690;23.260;2024-01-10T02:14:38;95172.22;;;-4.78;100.00
6433;BME280;3249;42.690;23.260;2024-01-10T02:17:08;95175.59;;;-4.79;100.00
6433;BME280;3249;42.690;23.260;2024-01-10T02:19:38;95151.13;;;-4.88;100.00
6433;BME280;3249;42.690;23.260;2024-01-10T02:22:10;95165.63;;;-4.55;100.00
6433;BME280;3249;42.690;23.260;2024-01-10T02:24:42;95162.78;;;-4.51;100.00
6433;BME280;3249;42.690;23.260;2024-01-10T02:27:13;95163.56;;;-4.38;100.00
6433;BME280;3249;42.690;23.260;2024-01-10T02:29:43;95150.03;;;-4.48;100.00
6433;BME280;3249;42.690;23.260;2024-01-10T02:32:12;95156.28;;;-4.53;100.00
6433;BME280;3249;42.690;23.260;2024-01-10T02:34:41;95159.06;;;-4.45;100.00
6433;BME280;3249;42.690;23.260;2024-01-10T02:37:11;95136.31;;;-4.67;100.00
6433;BME280;3249;42.690;23.260;2024-01-10T02:39:43;95158.09;;;-4.55;100.00
6433;BME280;3249;42.690;23.260;2024-01-10T02:42:14;95161.09;;;-4.50;100.00
6433;BME280;3249;42.690;23.260;2024-01-10T02:44:44;95158.09;;;-4.55;100.00
6433;BME280;3249;42.690;23.260;2024-01-10T02:47:13;95166.41;;;-4.55;100.00
6433;BME280;3249;42.690;23.260;2024-01-10T02:49:43;95151.41;;;-4.67;100.00
6433;BME280;3249;42.690;23.260;2024-01-10T02:52:12;95168.28;;;-4.82;100.00
6433;BME280;3249;42.690;23.260;2024-01-10T02:54:42;95139.47;;;-5.02;100.00
6433;BME280;3249;42.690;23.260;2024-01-10T02:57:11;95167.38;;;-4.68;100.00
6433;BME280;3249;42.690;23.260;2024-01-10T02:59:43;95169.16;;;-4.58;100.00
6433;BME280;3249;42.690;23.260;2024-01-10T03:02:15;95145.66;;;-4.69;100.00
6433;BME280;3249;42.690;23.260;2024-01-10T03:04:45;95162.69;;;-4.49;99.34
6433;BME280;3249;42.690;23.260;2024-01-10T03:07:14;95166.00;;;-4.49;98.40
6433;BME280;3249;42.690;23.260;2024-01-10T03:09:43;95168.50;;;-4.36;95.95
6433;BME280;3249;42.690;23.260;2024-01-10T03:12:12;95153.72;;;-4.41;93.08
6433;BME280;3249;42.690;23.260;2024-01-10T03:14:44;95153.56;;;-4.63;100.00
6433;BME280;3249;42.690;23.260;2024-01-10T03:17:14;95134.41;;;-4.64;100.00
6433;BME280;3249;42.690;23.260;2024-01-10T03:19:43;95165.38;;;-4.40;97.12
6433;BME280;3249;42.690;23.260;2024-01-10T03:22:12;95166.59;;;-4.45;95.75
6433;BME280;3249;42.690;23.260;2024-01-10T03:24:39;95173.91;;;-4.78;100.00
6433;BME280;3249;42.690;23.260;2024-01-10T03:27:08;95165.16;;;-4.86;98.16
6433;BME280;3249;42.690;23.260;2024-01-10T03:29:39;95161.88;;;-4.86;100.00
6433;BME280;3249;42.690;23.260;2024-01-10T03:32:11;95172.81;;;-4.38;100.00
6433;BME280;3249;42.690;23.260;2024-01-10T03:34:41;95177.69;;;-4.60;100.00
6433;BME280;3249;42.690;23.260;2024-01-10T03:37:11;95163.19;;;-4.80;94.62
6433;BME280;3249;42.690;23.260;2024-01-10T03:39:42;95172.91;;;-5.01;94.88
6433;BME280;3249;42.690;23.260;2024-01-10T03:42:11;95126.56;;;-5.33;100.00
6433;BME280;3249;42.690;23.260;2024-01-10T03:44:41;95176.94;;;-4.86;98.97
6433;BME280;3249;42.690;23.260;2024-01-10T03:47:13;95179.13;;;-4.69;97.62
6433;BME280;3249;42.690;23.260;2024-01-10T03:49:43;95181.34;;;-4.77;95.13
6433;BME280;3249;42.690;23.260;2024-01-10T03:52:12;95182.53;;;-4.70;94.61
6433;BME280;3249;42.690;23.260;2024-01-10T03:54:41;95176.41;;;-4.91;95.37
6433;BME280;3249;42.690;23.260;2024-01-10T03:57:11;95182.53;;;-4.70;92.72
6433;BME280;3249;42.690;23.260;2024-01-10T03:59:48;95174.75;;;-5.16;93.06
6433;BME280;3249;42.690;23.260;2024-01-10T04:02:20;95178.94;;;-5.41;93.70
6433;BME280;3249;42.690;23.260;2024-01-10T04:04:49;95181.34;;;-5.40;96.72
6433;BME280;3249;42.690;23.260;2024-01-10T04:07:19;95176.34;;;-5.40;95.17
6433;BME280;3249;42.690;23.260;2024-01-10T04:09:48;95138.88;;;-5.55;96.53
6433;BME280;3249;42.690;23.260;2024-01-10T04:12:18;95150.91;;;-5.60;93.62
6433;BME280;3249;42.690;23.260;2024-01-10T04:14:47;95164.50;;;-5.50;94.96
6433;BME280;3249;42.690;23.260;2024-01-10T04:17:19;95180.53;;;-5.15;94.89
6433;BME280;3249;42.690;23.260;2024-01-10T04:19:49;95181.16;;;-5.24;95.08
6433;BME280;3249;42.690;23.260;2024-01-10T04:22:18;95188.97;;;-4.91;95.53
6433;BME280;3249;42.690;23.260;2024-01-10T04:24:48;95192.88;;;-4.74;89.03
6433;BME280;3249;42.690;23.260;2024-01-10T04:27:17;95188.25;;;-4.68;86.83
6433;BME280;3249;42.690;23.260;2024-01-10T04:29:47;95201.31;;;-4.75;86.03
6433;BME280;3249;42.690;23.260;2024-01-10T04:32:18;95192.28;;;-5.03;88.59
6433;BME280;3249;42.690;23.260;2024-01-10T04:34:48;95208.25;;;-5.29;89.94
6433;BME280;3249;42.690;23.260;2024-01-10T04:37:18;95204.41;;;-5.35;88.49
6433;BME280;3249;42.690;23.260;2024-01-10T04:39:47;95219.72;;;-5.13;87.48
6433;BME280;3249;42.690;23.260;2024-01-10T04:42:16;95214.34;;;-5.33;85.99
6433;BME280;3249;42.690;23.260;2024-01-10T04:44:45;95218.06;;;-5.39;85.92
6433;BME280;3249;42.690;23.260;2024-01-10T04:47:15;95217.78;;;-5.09;84.98
6433;BME280;3249;42.690;23.260;2024-01-10T04:49:47;95222.50;;;-4.79;84.47
6433;BME280;3249;42.690;23.260;2024-01-10T04:52:16;95226.34;;;-4.74;82.16
6433;BME280;3249;42.690;23.260;2024-01-10T04:54:45;95226.41;;;-4.88;85.33
6433;BME280;3249;42.690;23.260;2024-01-10T04:57:15;95224.91;;;-4.91;83.10
6433;BME280;3249;42.690;23.260;2024-01-10T04:59:46;95221.31;;;-4.74;81.13
6433;BME280;3249;42.690;23.260;2024-01-10T05:02:15;95241.34;;;-4.49;77.58
6433;BME280;3249;42.690;23.260;2024-01-10T05:04:47;95232.53;;;-4.42;76.54
6433;BME280;3249;42.690;23.260;2024-01-10T05:07:16;95230.16;;;-4.68;79.99
6433;BME280;3249;42.690;23.260;2024-01-10T05:09:45;95220.91;;;-4.93;82.77
6433;BME280;3249;42.690;23.260;2024-01-10T05:12:14;95222.72;;;-4.82;80.99
6433;BME280;3249;42.690;23.260;2024-01-10T05:14:44;95231.81;;;-4.44;80.70
6433;BME280;3249;42.690;23.260;2024-01-10T05:17:13;95234.31;;;-4.44;78.23
6433;BME280;3249;42.690;23.260;2024-01-10T05:19:42;95209.56;;;-4.37;78.51
6433;BME280;3249;42.690;23.260;2024-01-10T05:22:15;95236.78;;;-4.19;78.20
6433;BME280;3249;42.690;23.260;2024-01-10T05:24:44;95240.00;;;-4.29;79.21
6433;BME280;3249;42.690;23.260;2024-01-10T05:27:13;95242.56;;;-4.42;76.95
6433;BME280;3249;42.690;23.260;2024-01-10T05:29:43;95245.06;;;-4.42;76.16
6433;BME280;3249;42.690;23.260;2024-01-10T05:32:13;95241.06;;;-4.69;72.77
6433;BME280;3249;42.690;23.260;2024-01-10T05:34:44;95243.91;;;-4.74;73.82
6433;BME280;3249;42.690;23.260;2024-01-10T05:37:16;95242.66;;;-4.56;73.06
6433;BME280;3249;42.690;23.260;2024-01-10T05:39:45;95229.19;;;-4.55;71.46
6433;BME280;3249;42.690;23.260;2024-01-10T05:42:16;95259.25;;;-4.41;69.86
6433;BME280;3249;42.690;23.260;2024-01-10T05:44:45;95235.47;;;-4.73;68.03
6433;BME280;3249;42.690;23.260;2024-01-10T05:47:14;95247.38;;;-4.39;66.87
6433;BME280;3249;42.690;23.260;2024-01-10T05:49:43;95257.19;;;-4.11;63.78
6433;BME280;3249;42.690;23.260;2024-01-10T05:52:12;95256.09;;;-3.96;61.85
6433;BME280;3249;42.690;23.260;2024-01-10T05:54:45;95253.13;;;-4.01;62.88
6433;BME280;3249;42.690;23.260;2024-01-10T05:57:15;95252.94;;;-4.10;67.30
6433;BME280;3249;42.690;23.260;2024-01-10T05:59:44;95252.09;;;-3.98;70.59
6433;BME280;3249;42.690;23.260;2024-01-10T06:02:13;95267.34;;;-4.25;64.15
6433;BME280;3249;42.690;23.260;2024-01-10T06:04:43;95264.16;;;-4.39;64.33
6433;BME280;3249;42.690;23.260;2024-01-10T06:07:13;95268.59;;;-4.68;62.74
6433;BME280;3249;42.690;23.260;2024-01-10T06:09:44;95257.94;;;-4.84;62.88
6433;BME280;3249;42.690;23.260;2024-01-10T06:12:14;95247.63;;;-4.79;66.08
6433;BME280;3249;42.690;23.260;2024-01-10T06:14:43;95263.88;;;-4.85;68.42
6433;BME280;3249;42.690;23.260;2024-01-10T06:17:13;95267.47;;;-5.14;70.15
6433;BME280;3249;42.690;23.260;2024-01-10T06:19:42;95254.41;;;-5.32;69.63
6433;BME280;3249;42.690;23.260;2024-01-10T06:22:12;95256.03;;;-5.45;69.91
6433;BME280;3249;42.690;23.260;2024-01-10T06:24:46;95278.63;;;-4.93;67.33
6433;BME280;3249;42.690;23.260;2024-01-10T06:27:15;95287.78;;;-4.67;60.76
6433;BME280;3249;42.690;23.260;2024-01-10T06:29:44;95277.34;;;-4.61;58.89
6433;BME280;3249;42.690;23.260;2024-01-10T06:32:14;95289.66;;;-4.33;58.80
6433;BME280;3249;42.690;23.260;2024-01-10T06:34:44;95287.16;;;-4.20;56.97
6433;BME280;3249;42.690;23.260;2024-01-10T06:37:13;95294.81;;;-4.47;55.42
6433;BME280;3249;42.690;23.260;2024-01-10T06:39:42;95298.22;;;-4.86;57.67
6433;BME280;3249;42.690;23.260;2024-01-10T06:42:14;95282.84;;;-4.56;57.94
6433;BME280;3249;42.690;23.260;2024-01-10T06:44:43;95288.59;;;-4.54;56.38
6433;BME280;3249;42.690;23.260;2024-01-10T06:47:12;95308.03;;;-4.95;59.41
6433;BME280;3249;42.690;23.260;2024-01-10T06:49:42;95295.78;;;-4.87;56.64
6433;BME280;3249;42.690;23.260;2024-01-10T06:52:11;95304.47;;;-4.66;57.79
6433;BME280;3249;42.690;23.260;2024-01-10T06:54:42;95306.03;;;-4.78;57.62
6433;BME280;3249;42.690;23.260;2024-01-10T06:57:14;95308.06;;;-5.34;58.99
6433;BME280;3249;42.690;23.260;2024-01-10T06:59:44;95308.56;;;-5.29;61.76
6433;BME280;3249;42.690;23.260;2024-01-10T07:02:14;95308.06;;;-5.34;63.05
6433;BME280;3249;42.690;23.260;2024-01-10T07:04:44;95313.00;;;-5.20;58.55
6433;BME280;3249;42.690;23.260;2024-01-10T07:07:14;95316.19;;;-4.92;55.54
6433;BME280;3249;42.690;23.260;2024-01-10T07:09:44;95319.53;;;-5.18;53.45
6433;BME280;3249;42.690;23.260;2024-01-10T07:12:15;95312.34;;;-4.97;52.05
6433;BME280;3249;42.690;23.260;2024-01-10T07:14:45;95330.19;;;-4.50;51.84
6433;BME280;3249;42.690;23.260;2024-01-10T07:17:14;95312.06;;;-4.80;51.07
6433;BME280;3249;42.690;23.260;2024-01-10T07:19:44;95329.38;;;-4.50;51.02
6433;BME280;3249;42.690;23.260;2024-01-10T07:22:14;95330.88;;;-4.23;49.45
6433;BME280;3249;42.690;23.260;2024-01-10T07:24:44;95331.28;;;-4.16;48.33
6433;BME280;3249;42.690;23.260;2024-01-10T07:27:16;95328.16;;;-4.20;48.94
6433;BME280;3249;42.690;23.260;2024-01-10T07:29:46;95335.97;;;-3.87;47.58
6433;BME280;3249;42.690;23.260;2024-01-10T07:32:23;95333.34;;;-3.98;47.24
6433;BME280;3249;42.690;23.260;2024-01-10T07:34:58;95348.06;;;-4.17;46.99
6433;BME280;3249;42.690;23.260;2024-01-10T07:37:28;95349.41;;;-3.88;45.93
6433;BME280;3249;42.690;23.260;2024-01-10T07:39:57;95352.63;;;-3.73;46.59
6433;BME280;3249;42.690;23.260;2024-01-10T07:42:30;95358.59;;;-3.51;46.95
6433;BME280;3249;42.690;23.260;2024-01-10T07:44:59;95366.81;;;-3.72;45.81
6433;BME280;3249;42.690;23.260;2024-01-10T07:47:30;95355.88;;;-3.96;46.33
6433;BME280;3249;42.690;23.260;2024-01-10T07:50:12;95359.75;;;-3.67;46.79
6433;BME280;3249;42.690;23.260;2024-01-10T07:52:54;95331.38;;;-3.69;46.87
6433;BME280;3249;42.690;23.260;2024-01-10T07:55:24;95358.91;;;-3.32;46.11
6433;BME280;3249;42.690;23.260;2024-01-10T07:58:14;95352.81;;;-3.76;46.43
6433;BME280;3249;42.690;23.260;2024-01-10T08:00:44;95348.38;;;-3.73;46.04
6433;BME280;3249;42.690;23.260;2024-01-10T08:03:14;95352.38;;;-3.34;45.57
6433;BME280;3249;42.690;23.260;2024-01-10T08:05:44;95330.81;;;-3.26;45.44
6433;BME280;3249;42.690;23.260;2024-01-10T08:08:18;95351.44;;;-3.21;45.74
6433;BME280;3249;42.690;23.260;2024-01-10T08:10:48;95364.22;;;-3.00;45.69
6433;BME280;3249;42.690;23.260;2024-01-10T08:13:24;95346.47;;;-3.33;45.40
6433;BME280;3249;42.690;23.260;2024-01-10T08:15:54;95361.03;;;-3.62;46.21
6433;BME280;3249;42.690;23.260;2024-01-10T08:18:23;95363.66;;;-3.40;46.65
6433;BME280;3249;42.690;23.260;2024-01-10T08:20:57;95358.28;;;-3.23;45.53
6433;BME280;3249;42.690;23.260;2024-01-10T08:23:26;95359.34;;;-3.38;45.84
6433;BME280;3249;42.690;23.260;2024-01-10T08:25:56;95357.59;;;-3.61;47.18
6433;BME280;3249;42.690;23.260;2024-01-10T08:28:28;95336.53;;;-3.47;48.57
6433;BME280;3249;42.690;23.260;2024-01-10T08:30:57;95356.50;;;-3.57;47.77
6433;BME280;3249;42.690;23.260;2024-01-10T08:33:27;95354.59;;;-3.53;47.43
6433;BME280;3249;42.690;23.260;2024-01-10T08:35:56;95352.56;;;-3.61;47.33
6433;BME280;3249;42.690;23.260;2024-01-10T08:38:26;95355.75;;;-3.82;47.27
6433;BME280;3249;42.690;23.260;2024-01-10T08:40:56;95354.34;;;-3.50;47.23
6433;BME280;3249;42.690;23.260;2024-01-10T08:43:28;95343.44;;;-3.38;46.80
6433;BME280;3249;42.690;23.260;2024-01-10T08:45:57;95374.47;;;-2.91;45.95
6433;BME280;3249;42.690;23.260;2024-01-10T08:48:26;95359.13;;;-2.88;45.80
6433;BME280;3249;42.690;23.260;2024-01-10T08:50:56;95357.50;;;-2.89;46.55
6433;BME280;3249;42.690;23.260;2024-01-10T08:53:26;95358.66;;;-3.16;46.56
6433;BME280;3249;42.690;23.260;2024-01-10T08:55:56;95350.56;;;-3.09;47.12
6433;BME280;3249;42.690;23.260;2024-01-10T08:58:30;95347.88;;;-2.95;46.96
6433;BME280;3249;42.690;23.260;2024-01-10T09:01:00;95361.59;;;-3.22;47.73
6433;BME280;3249;42.690;23.260;2024-01-10T09:03:30;95356.63;;;-3.11;48.49
6433;BME280;3249;42.690;23.260;2024-01-10T09:05:59;95363.09;;;-2.96;47.72
6433;BME280;3249;42.690;23.260;2024-01-10T09:08:30;95362.28;;;-2.97;47.49
6433;BME280;3249;42.690;23.260;2024-01-10T09:10:59;95354.69;;;-3.31;49.37
6433;BME280;3249;42.690;23.260;2024-01-10T09:16:39;95353.75;;;-2.38;49.25
6433;BME280;3249;42.690;23.260;2024-01-10T09:19:20;95354.34;;;-2.34;49.79
6433;BME280;3249;42.690;23.260;2024-01-10T09:21:52;95319.72;;;-2.43;50.68
6433;BME280;3249;42.690;23.260;2024-01-10T09:24:35;95355.72;;;-2.41;51.17
6433;BME280;3249;42.690;23.260;2024-01-10T09:27:12;95353.56;;;-2.13;52.27
6433;BME280;3249;42.690;23.260;2024-01-10T09:29:44;95346.47;;;-2.08;54.44
6433;BME280;3249;42.690;23.260;2024-01-10T09:32:16;95344.91;;;-2.65;55.76
6433;BME280;3249;42.690;23.260;2024-01-10T09:34:46;95343.50;;;-3.04;60.25
6433;BME280;3249;42.690;23.260;2024-01-10T09:37:15;95343.50;;;-2.69;57.26
6433;BME280;3249;42.690;23.260;2024-01-10T09:39:45;95350.78;;;-2.43;53.99
6433;BME280;3249;42.690;23.260;2024-01-10T09:42:14;95350.22;;;-2.24;52.24
6433;BME280;3249;42.690;23.260;2024-01-10T09:44:45;95343.19;;;-2.54;52.08
6433;BME280;3249;42.690;23.260;2024-01-10T09:47:19;95332.56;;;-2.81;54.16
6433;BME280;3249;42.690;23.260;2024-01-10T09:49:49;95340.88;;;-2.68;54.88
6433;BME280;3249;42.690;23.260;2024-01-10T09:52:26;95342.13;;;-2.62;53.21
6433;BME280;3249;42.690;23.260;2024-01-10T09:54:57;95332.47;;;-2.79;52.49
6433;BME280;3249;42.690;23.260;2024-01-10T09:57:27;95338.69;;;-2.72;53.64
6433;BME280;3249;42.690;23.260;2024-01-10T09:59:57;95318.75;;;-2.75;53.13
6433;BME280;3249;42.690;23.260;2024-01-10T10:02:36;95329.59;;;-2.86;52.29
6433;BME280;3249;42.690;23.260;2024-01-10T10:05:09;95326.66;;;-2.69;51.99
6433;BME280;3249;42.690;23.260;2024-01-10T10:07:43;95318.59;;;-2.50;52.23
6433;BME280;3249;42.690;23.260;2024-01-10T10:10:13;95323.97;;;-2.44;50.77
6433;BME280;3249;42.690;23.260;2024-01-10T10:12:43;95328.94;;;-2.09;47.77
6433;BME280;3249;42.690;23.260;2024-01-10T10:15:16;95315.28;;;-2.18;46.75
6433;BME280;3249;42.690;23.260;2024-01-10T10:17:52;95312.50;;;-1.82;46.55
6433;BME280;3249;42.690;23.260;2024-01-10T10:20:22;95310.28;;;-1.53;45.98
6433;BME280;3249;42.690;23.260;2024-01-10T10:23:00;95306.59;;;-1.38;45.08
6433;BME280;3249;42.690;23.260;2024-01-10T10:25:31;95300.59;;;-1.69;45.07
6433;BME280;3249;42.690;23.260;2024-01-10T10:28:04;95305.25;;;-1.22;44.93
6433;BME280;3249;42.690;23.260;2024-01-10T10:30:34;95294.25;;;-1.21;44.83
6433;BME280;3249;42.690;23.260;2024-01-10T10:33:06;95298.22;;;-0.87;45.48
6433;BME280;3249;42.690;23.260;2024-01-10T10:35:36;95284.72;;;-0.76;46.03
6433;BME280;3249;42.690;23.260;2024-01-10T10:38:07;95289.78;;;-0.56;46.33
6433;BME280;3249;42.690;23.260;2024-01-10T10:40:38;95265.25;;;-0.85;46.65
6433;BME280;3249;42.690;23.260;2024-01-10T10:43:12;95281.13;;;-0.83;47.61
6433;BME280;3249;42.690;23.260;2024-01-10T10:45:47;95279.03;;;-0.58;47.33
6433;BME280;3249;42.690;23.260;2024-01-10T10:48:20;95264.75;;;-0.59;47.56
6433;BME280;3249;42.690;23.260;2024-01-10T10:50:55;95274.81;;;-0.48;46.13
6433;BME280;3249;42.690;23.260;2024-01-10T10:53:27;95268.16;;;-0.49;45.79
6433;BME280;3249;42.690;23.260;2024-01-10T10:55:59;95262.19;;;-0.89;47.16
6433;BME280;3249;42.690;23.260;2024-01-10T10:58:31;95244.47;;;-1.61;46.88
6433;BME280;3249;42.690;23.260;2024-01-10T11:01:04;95258.13;;;-1.32;46.73
6433;BME280;3249;42.690;23.260;2024-01-10T11:03:39;95260.22;;;-1.37;46.77
6433;BME280;3249;42.690;23.260;2024-01-10T11:06:10;95249.31;;;-1.06;46.34
6433;BME280;3249;42.690;23.260;2024-01-10T11:08:43;95239.44;;;-0.89;46.00
6433;BME280;3249;42.690;23.260;2024-01-10T11:11:22;95234.94;;;-0.85;45.94
6433;BME280;3249;42.690;23.260;2024-01-10T11:14:09;95223.97;;;-1.16;46.63
6433;BME280;3249;42.690;23.260;2024-01-10T11:17:12;95250.28;;;-0.57;45.40
6433;BME280;3249;42.690;23.260;2024-01-10T11:23:21;95225.06;;;-0.68;46.12
6433;BME280;3249;42.690;23.260;2024-01-10T11:25:58;95238.06;;;-0.52;45.40
6433;BME280;3249;42.690;23.260;2024-01-10T11:28:30;95217.50;;;-0.68;45.10
6433;BME280;3249;42.690;23.260;2024-01-10T11:31:00;95228.59;;;-0.80;46.15
6433;BME280;3249;42.690;23.260;2024-01-10T11:33:31;95219.72;;;-0.74;45.63
6433;BME280;3249;42.690;23.260;2024-01-10T11:36:12;95220.31;;;-0.82;46.62
6433;BME280;3249;42.690;23.260;2024-01-10T11:38:48;95204.94;;;-1.20;46.32
6433;BME280;3249;42.690;23.260;2024-01-10T11:41:24;95214.38;;;-0.81;46.44
6433;BME280;3249;42.690;23.260;2024-01-10T11:46:53;95212.44;;;-0.38;45.65
6433;BME280;3249;42.690;23.260;2024-01-10T11:49:25;95205.03;;;-0.20;45.61
6433;BME280;3249;42.690;23.260;2024-01-10T11:51:55;95186.78;;;-0.24;45.36
6433;BME280;3249;42.690;23.260;2024-01-10T11:54:40;95196.75;;;0.27;44.62
6433;BME280;3249;42.690;23.260;2024-01-10T11:57:11;95183.94;;;0.19;44.79
6433;BME280;3249;42.690;23.260;2024-01-10T11:59:42;95189.41;;;0.15;44.96
6433;BME280;3249;42.690;23.260;2024-01-10T12:02:14;95188.47;;;0.16;44.95
6433;BME280;3249;42.690;23.260;2024-01-10T12:04:44;95187.69;;;0.25;44.70
6433;BME280;3249;42.690;23.260;2024-01-10T12:07:14;95190.28;;;-0.15;44.10
6433;BME280;3249;42.690;23.260;2024-01-10T12:09:47;95171.13;;;0.01;43.49
6433;BME280;3249;42.690;23.260;2024-01-10T12:12:21;95182.75;;;0.13;43.54
6433;BME280;3249;42.690;23.260;2024-01-10T12:14:52;95184.47;;;0.03;43.15
6433;BME280;3249;42.690;23.260;2024-01-10T12:17:26;95182.56;;;-0.14;43.56
6433;BME280;3249;42.690;23.260;2024-01-10T12:19:56;95178.91;;;0.29;42.67
6433;BME280;3249;42.690;23.260;2024-01-10T12:22:25;95170.53;;;0.28;42.75
6433;BME280;3249;42.690;23.260;2024-01-10T12:25:04;95165.22;;;-0.28;43.21
6433;BME280;3249;42.690;23.260;2024-01-10T12:27:33;95171.94;;;0.02;42.89
6433;BME280;3249;42.690;23.260;2024-01-10T12:30:05;95155.44;;;0.08;42.79
6433;BME280;3249;42.690;23.260;2024-01-10T12:32:34;95152.25;;;-0.44;43.18
6433;BME280;3249;42.690;23.260;2024-01-10T12:35:09;95156.22;;;-0.11;42.88
6433;BME280;3249;42.690;23.260;2024-01-10T12:37:38;95181.81;;;0.05;42.74
6433;BME280;3249;42.690;23.260;2024-01-10T12:40:11;95172.09;;;0.20;43.35
6433;BME280;3249;42.690;23.260;2024-01-10T12:42:41;95165.25;;;-0.58;44.47
6433;BME280;3249;42.690;23.260;2024-01-10T12:45:23;95179.03;;;-0.71;45.35
6433;BME280;3249;42.690;23.260;2024-01-10T12:47:54;95163.44;;;-0.76;46.08
6433;BME280;3249;42.690;23.260;2024-01-10T12:50:24;95170.84;;;-0.54;46.56
6433;BME280;3249;42.690;23.260;2024-01-10T12:52:56;95140.09;;;-0.59;46.18
6433;BME280;3249;42.690;23.260;2024-01-10T12:55:33;95144.50;;;-0.52;46.30
6433;BME280;3249;42.690;23.260;2024-01-10T12:58:06;95169.63;;;-0.11;45.02
6433;BME280;3249;42.690;23.260;2024-01-10T13:00:35;95171.66;;;-0.05;45.08
6433;BME280;3249;42.690;23.260;2024-01-10T13:03:05;95175.44;;;0.11;45.50
6433;BME280;3249;42.690;23.260;2024-01-10T13:05:35;95175.69;;;0.08;44.57
6433;BME280;3249;42.690;23.260;2024-01-10T13:08:06;95175.53;;;-0.01;45.39
6433;BME280;3249;42.690;23.260;2024-01-10T13:10:41;95163.22;;;-0.64;45.75
6433;BME280;3249;42.690;23.260;2024-01-10T13:13:11;95172.47;;;-0.44;45.00
6433;BME280;3249;42.690;23.260;2024-01-10T13:15:41;95175.91;;;-0.05;44.38
6433;BME280;3249;42.690;23.260;2024-01-10T13:18:11;95175.34;;;-0.28;44.70
6433;BME280;3249;42.690;23.260;2024-01-10T13:20:41;95169.75;;;-0.61;45.13
6433;BME280;3249;42.690;23.260;2024-01-10T13:23:14;95153.84;;;-0.43;45.08
6433;BME280;3249;42.690;23.260;2024-01-10T13:25:53;95167.34;;;-0.33;44.93
6433;BME280;3249;42.690;23.260;2024-01-10T13:28:23;95135.44;;;-0.64;45.25
6433;BME280;3249;42.690;23.260;2024-01-10T13:30:54;95169.63;;;-0.30;44.85
6433;BME280;3249;42.690;23.260;2024-01-10T13:33:24;95152.72;;;-0.20;44.47
6433;BME280;3249;42.690;23.260;2024-01-10T13:35:59;95168.06;;;-0.12;44.61
6433;BME280;3249;42.690;23.260;2024-01-10T13:38:32;95159.47;;;-0.39;46.14
6433;BME280;3249;42.690;23.260;2024-01-10T13:41:04;95157.88;;;-0.31;46.65